createdAt,value
2019-04-30T00:00:13.323Z,11.08
2019-04-30T00:01:17.110Z,11.04
2019-04-30T00:02:15.753Z,10.99
2019-04-30T00:03:15.986Z,11.12
2019-04-30T00:04:15.786Z,11.07
2019-04-30T00:05:17.782Z,11.05
2019-04-30T00:06:15.693Z,11.10
2019-04-30T00:07:18.793Z,11.14
2019-04-30T00:08:16.028Z,11.00
2019-04-30T00:09:18.965Z,11.14
2019-04-30T00:10:15.592Z,11.22
2019-04-30T00:11:19.371Z,11.23
2019-04-30T00:12:16.019Z,11.23
2019-04-30T00:13:20.726Z,11.11
2019-04-30T00:14:16.469Z,11.15
2019-04-30T00:15:19.530Z,11.10
2019-04-30T00:16:16.920Z,11.07
2019-04-30T00:17:19.675Z,11.08
2019-04-30T00:18:17.370Z,11.19
2019-04-30T00:19:19.635Z,11.15
2019-04-30T00:20:17.840Z,11.17
2019-04-30T00:21:18.850Z,11.12
2019-04-30T00:22:30.768Z,11.19
2019-04-30T00:23:22.634Z,11.19
2019-04-30T00:24:18.744Z,11.17
2019-04-30T00:25:19.697Z,11.22
2019-04-30T00:26:19.171Z,11.15
2019-04-30T00:27:20.962Z,11.00
2019-04-30T00:28:19.623Z,10.99
2019-04-30T00:29:26.832Z,10.99
2019-04-30T00:30:20.082Z,11.04
2019-04-30T00:31:23.727Z,11.02
2019-04-30T00:32:20.524Z,11.10
2019-04-30T00:33:22.275Z,11.05
2019-04-30T00:34:20.975Z,10.99
2019-04-30T00:35:21.199Z,11.02
2019-04-30T00:36:21.422Z,10.94
2019-04-30T00:37:21.646Z,11.05
2019-04-30T00:38:21.874Z,11.02
2019-04-30T00:39:22.102Z,11.05
2019-04-30T00:40:26.678Z,11.07
2019-04-30T00:41:22.551Z,11.18
2019-04-30T00:42:24.174Z,11.14
2019-04-30T00:43:22.999Z,11.19
2019-04-30T00:44:24.898Z,11.12
2019-04-30T00:45:25.085Z,11.08
2019-04-30T00:46:25.501Z,11.14
2019-04-30T00:47:25.645Z,11.05
2019-04-30T00:48:29.574Z,11.07
2019-04-30T00:49:26.589Z,10.97
2019-04-30T00:50:24.882Z,10.92
2019-04-30T00:51:26.161Z,10.90
2019-04-30T00:52:25.359Z,10.84
2019-04-30T00:53:26.263Z,10.92
2019-04-30T00:54:27.931Z,10.82
2019-04-30T00:55:25.697Z,10.89
2019-04-30T00:56:28.203Z,10.76
2019-04-30T00:57:26.519Z,10.72
2019-04-30T00:58:30.286Z,10.72
2019-04-30T00:59:26.597Z,10.64
2019-04-30T01:00:29.590Z,10.72
2019-04-30T01:01:27.049Z,10.74
2019-04-30T01:02:31.777Z,10.69
2019-04-30T01:03:27.496Z,10.63
2019-04-30T01:04:28.229Z,10.64
2019-04-30T01:05:27.946Z,10.57
2019-04-30T01:06:28.694Z,10.64
2019-04-30T01:07:28.396Z,10.60
2019-04-30T01:08:28.764Z,10.61
2019-04-30T01:09:28.845Z,10.56
2019-04-30T01:10:29.072Z,10.67
2019-04-30T01:11:29.322Z,10.68
2019-04-30T01:12:35.909Z,10.53
2019-04-30T01:13:29.744Z,10.54
2019-04-30T01:14:31.966Z,10.59
2019-04-30T01:15:30.194Z,10.60
2019-04-30T01:16:33.113Z,10.61
2019-04-30T01:17:30.642Z,10.54
2019-04-30T01:18:32.149Z,10.57
2019-04-30T01:19:32.859Z,10.61
2019-04-30T01:20:32.799Z,10.51
2019-04-30T01:21:31.543Z,10.56
2019-04-30T01:22:32.828Z,10.46
2019-04-30T01:23:31.993Z,10.46
2019-04-30T01:24:32.219Z,10.41
2019-04-30T01:25:32.443Z,10.54
2019-04-30T01:26:32.667Z,10.51
2019-04-30T01:27:32.892Z,10.40
2019-04-30T01:28:33.117Z,10.40
2019-04-30T01:29:41.001Z,10.44
2019-04-30T01:30:33.568Z,10.38
2019-04-30T01:31:37.557Z,10.35
2019-04-30T01:32:34.017Z,10.46
2019-04-30T01:33:35.647Z,10.46
2019-04-30T01:34:34.464Z,10.42
2019-04-30T01:35:34.691Z,10.40
2019-04-30T01:36:34.913Z,10.46
2019-04-30T01:37:35.138Z,10.28
2019-04-30T01:38:35.364Z,10.31
2019-04-30T01:39:35.587Z,10.33
2019-04-30T01:40:35.811Z,10.38
2019-04-30T01:41:36.037Z,10.35
2019-04-30T01:42:36.262Z,10.30
2019-04-30T01:43:36.487Z,10.28
2019-04-30T01:44:36.709Z,10.22
2019-04-30T01:45:38.573Z,10.35
2019-04-30T01:46:39.023Z,10.17
2019-04-30T01:47:37.380Z,10.34
2019-04-30T01:48:39.173Z,10.28
2019-04-30T01:49:43.660Z,10.31
2019-04-30T01:50:41.811Z,10.28
2019-04-30T01:51:38.707Z,10.33
2019-04-30T01:52:38.833Z,10.31
2019-04-30T01:53:38.897Z,10.30
2019-04-30T01:54:39.194Z,10.28
2019-04-30T01:55:41.411Z,10.31
2019-04-30T01:56:39.406Z,10.23
2019-04-30T01:57:39.632Z,10.34
2019-04-30T01:58:39.858Z,10.25
2019-04-30T01:59:40.108Z,10.33
2019-04-30T02:00:40.308Z,10.17
2019-04-30T02:01:40.533Z,10.15
2019-04-30T02:02:40.758Z,10.20
2019-04-30T02:03:40.982Z,10.15
2019-04-30T02:04:41.210Z,10.13
2019-04-30T02:05:41.430Z,10.12
2019-04-30T02:06:41.654Z,10.10
2019-04-30T02:07:41.878Z,10.12
2019-04-30T02:08:42.103Z,10.02
2019-04-30T02:09:42.330Z,9.94
2019-04-30T02:10:42.561Z,9.95
2019-04-30T02:11:42.780Z,9.97
2019-04-30T02:12:43.010Z,9.91
2019-04-30T02:13:43.228Z,9.95
2019-04-30T02:14:43.456Z,9.89
2019-04-30T02:15:43.681Z,9.95
2019-04-30T02:16:43.907Z,9.98
2019-04-30T02:17:44.131Z,9.94
2019-04-30T02:18:44.355Z,9.95
2019-04-30T02:19:54.085Z,9.86
2019-04-30T02:20:44.802Z,9.84
2019-04-30T02:21:45.027Z,9.83
2019-04-30T02:22:45.253Z,9.77
2019-04-30T02:23:45.482Z,9.77
2019-04-30T02:24:45.701Z,9.83
2019-04-30T02:25:45.926Z,9.72
2019-04-30T02:26:46.149Z,9.69
2019-04-30T02:27:46.375Z,9.59
2019-04-30T02:28:46.601Z,9.59
2019-04-30T02:29:46.828Z,9.55
2019-04-30T02:30:50.065Z,9.54
2019-04-30T02:31:47.276Z,9.54
2019-04-30T02:32:52.097Z,9.54
2019-04-30T02:33:50.097Z,9.56
2019-04-30T02:34:49.755Z,9.41
2019-04-30T02:35:50.141Z,9.36
2019-04-30T02:36:49.907Z,9.43
2019-04-30T02:37:50.567Z,9.40
2019-04-30T02:38:49.396Z,9.36
2019-04-30T02:39:50.324Z,9.21
2019-04-30T02:40:49.769Z,9.39
2019-04-30T02:41:50.618Z,9.34
2019-04-30T02:42:49.865Z,9.29
2019-04-30T02:43:49.981Z,9.21
2019-04-30T02:44:50.485Z,9.21
2019-04-30T02:45:50.415Z,9.08
2019-04-30T02:46:50.646Z,9.06
2019-04-30T02:47:50.868Z,8.95
2019-04-30T02:48:51.091Z,8.94
2019-04-30T02:49:53.349Z,9.00
2019-04-30T02:50:51.542Z,9.06
2019-04-30T02:51:51.766Z,9.00
2019-04-30T02:52:51.992Z,9.04
2019-04-30T02:53:52.221Z,9.10
2019-04-30T02:54:52.438Z,9.04
2019-04-30T02:55:52.662Z,8.99
2019-04-30T02:56:52.888Z,9.02
2019-04-30T02:57:53.114Z,8.94
2019-04-30T02:58:53.338Z,8.94
2019-04-30T02:59:53.563Z,8.92
2019-04-30T03:00:53.790Z,8.94
2019-04-30T03:01:54.022Z,8.94
2019-04-30T03:02:54.239Z,8.89
2019-04-30T03:03:54.461Z,8.97
2019-04-30T03:04:54.694Z,8.94
2019-04-30T03:05:54.910Z,8.97
2019-04-30T03:06:55.132Z,8.95
2019-04-30T03:07:55.358Z,8.92
2019-04-30T03:08:55.581Z,8.89
2019-04-30T03:09:55.807Z,8.89
2019-04-30T03:10:56.029Z,8.88
2019-04-30T03:11:56.254Z,8.89
2019-04-30T03:12:56.481Z,8.91
2019-04-30T03:13:59.076Z,8.89
2019-04-30T03:14:56.929Z,8.92
2019-04-30T03:15:59.313Z,8.92
2019-04-30T03:16:59.849Z,8.94
2019-04-30T03:18:00.350Z,8.79
2019-04-30T03:18:59.509Z,8.81
2019-04-30T03:20:03.098Z,8.78
2019-04-30T03:20:59.836Z,8.79
2019-04-30T03:22:00.198Z,8.73
2019-04-30T03:22:59.445Z,8.64
2019-04-30T03:24:00.586Z,8.69
2019-04-30T03:24:59.868Z,8.69
2019-04-30T03:25:59.836Z,8.79
2019-04-30T03:26:59.643Z,8.67
2019-04-30T03:28:00.422Z,8.70
2019-04-30T03:29:00.842Z,8.55
2019-04-30T03:30:00.369Z,8.53
2019-04-30T03:31:04.462Z,8.52
2019-04-30T03:32:02.992Z,8.55
2019-04-30T03:33:02.587Z,8.55
2019-04-30T03:34:02.286Z,8.58
2019-04-30T03:35:03.259Z,8.61
2019-04-30T03:36:02.510Z,8.60
2019-04-30T03:37:02.316Z,8.61
2019-04-30T03:38:02.096Z,8.55
2019-04-30T03:39:02.321Z,8.56
2019-04-30T03:40:02.544Z,8.61
2019-04-30T03:41:02.768Z,8.63
2019-04-30T03:42:02.994Z,8.55
2019-04-30T03:43:03.369Z,8.58
2019-04-30T03:44:17.451Z,8.48
2019-04-30T03:45:03.671Z,8.52
2019-04-30T03:46:03.893Z,8.52
2019-04-30T03:47:04.118Z,8.53
2019-04-30T03:48:04.338Z,8.56
2019-04-30T03:49:04.563Z,8.58
2019-04-30T03:50:04.794Z,8.56
2019-04-30T03:51:05.014Z,8.60
2019-04-30T03:52:05.237Z,8.66
2019-04-30T03:53:05.461Z,8.63
2019-04-30T03:54:05.697Z,8.60
2019-04-30T03:55:05.928Z,8.56
2019-04-30T03:56:06.136Z,8.58
2019-04-30T03:57:06.365Z,8.61
2019-04-30T03:58:09.079Z,8.56
2019-04-30T03:59:06.822Z,8.53
2019-04-30T04:00:09.238Z,8.53
2019-04-30T04:01:09.928Z,8.58
2019-04-30T04:02:12.263Z,8.49
2019-04-30T04:03:10.088Z,8.58
2019-04-30T04:04:10.114Z,8.51
2019-04-30T04:05:10.278Z,8.56
2019-04-30T04:06:09.415Z,8.48
2019-04-30T04:07:10.242Z,8.52
2019-04-30T04:08:09.575Z,8.46
2019-04-30T04:09:10.339Z,8.49
2019-04-30T04:10:10.171Z,8.55
2019-04-30T04:11:10.140Z,8.56
2019-04-30T04:12:12.064Z,8.63
2019-04-30T04:13:10.371Z,8.73
2019-04-30T04:14:10.173Z,8.69
2019-04-30T04:15:10.728Z,8.69
2019-04-30T04:16:10.621Z,8.67
2019-04-30T04:17:10.844Z,8.85
2019-04-30T04:18:11.070Z,8.74
2019-04-30T04:19:11.294Z,8.87
2019-04-30T04:20:11.527Z,8.92
2019-04-30T04:21:16.726Z,8.94
2019-04-30T04:22:12.299Z,8.99
2019-04-30T04:23:12.192Z,9.03
2019-04-30T04:24:12.416Z,9.18
2019-04-30T04:25:13.320Z,9.36
2019-04-30T04:26:12.862Z,9.41
2019-04-30T04:27:13.090Z,9.56
2019-04-30T04:28:13.318Z,9.77
2019-04-30T04:29:13.540Z,9.84
2019-04-30T04:30:13.766Z,9.97
2019-04-30T04:31:13.989Z,10.01
2019-04-30T04:32:14.215Z,10.10
2019-04-30T04:33:14.440Z,10.16
2019-04-30T04:34:14.666Z,10.38
2019-04-30T04:35:14.904Z,10.49
2019-04-30T04:36:15.119Z,10.67
2019-04-30T04:37:15.352Z,10.90
2019-04-30T04:38:15.573Z,11.10
2019-04-30T04:39:15.800Z,11.35
2019-04-30T04:40:16.026Z,11.37
2019-04-30T04:41:16.249Z,11.72
2019-04-30T04:42:16.479Z,11.97
2019-04-30T04:43:16.704Z,12.15
2019-04-30T04:44:19.671Z,12.35
2019-04-30T04:45:19.695Z,12.61
2019-04-30T04:46:20.312Z,12.83
2019-04-30T04:47:19.812Z,12.93
2019-04-30T04:48:19.953Z,13.13
2019-04-30T04:49:20.663Z,13.23
2019-04-30T04:50:20.048Z,13.39
2019-04-30T04:51:33.248Z,13.74
2019-04-30T04:52:21.478Z,13.63
2019-04-30T04:53:19.501Z,13.79
2019-04-30T04:54:20.253Z,13.89
2019-04-30T04:55:22.027Z,13.90
2019-04-30T04:56:19.656Z,14.36
2019-04-30T04:57:22.801Z,14.45
2019-04-30T04:58:21.557Z,14.82
2019-04-30T04:59:20.333Z,15.00
2019-04-30T05:00:20.559Z,14.99
2019-04-30T05:01:20.786Z,15.18
2019-04-30T05:02:21.025Z,15.46
2019-04-30T05:03:21.247Z,15.43
2019-04-30T05:04:21.473Z,15.57
2019-04-30T05:05:21.703Z,15.67
2019-04-30T05:06:22.452Z,15.88
2019-04-30T05:07:22.157Z,16.04
2019-04-30T05:08:22.388Z,15.92
2019-04-30T05:09:22.615Z,15.90
2019-04-30T05:10:22.846Z,16.32
2019-04-30T05:11:23.092Z,16.21
2019-04-30T05:12:23.303Z,16.50
2019-04-30T05:13:23.531Z,16.66
2019-04-30T05:14:23.771Z,16.69
2019-04-30T05:15:23.992Z,16.90
2019-04-30T05:16:24.221Z,16.81
2019-04-30T05:17:24.450Z,16.94
2019-04-30T05:18:24.685Z,17.23
2019-04-30T05:19:24.911Z,16.81
2019-04-30T05:20:25.142Z,16.86
2019-04-30T05:21:25.371Z,17.09
2019-04-30T05:22:25.605Z,17.15
2019-04-30T05:23:25.833Z,17.26
2019-04-30T05:24:26.062Z,17.20
2019-04-30T05:25:26.297Z,17.30
2019-04-30T05:26:26.523Z,17.26
2019-04-30T05:27:26.754Z,17.45
2019-04-30T05:28:26.984Z,17.44
2019-04-30T05:29:28.790Z,17.56
2019-04-30T05:30:29.336Z,17.71
2019-04-30T05:31:28.935Z,17.57
2019-04-30T05:32:29.331Z,18.04
2019-04-30T05:33:28.595Z,18.11
2019-04-30T05:34:28.801Z,18.26
2019-04-30T05:35:30.956Z,18.50
2019-04-30T05:36:29.300Z,18.35
2019-04-30T05:37:29.067Z,18.53
2019-04-30T05:38:31.336Z,18.75
2019-04-30T05:39:29.531Z,19.07
2019-04-30T05:40:29.762Z,19.16
2019-04-30T05:41:29.994Z,19.24
2019-04-30T05:42:30.228Z,19.15
2019-04-30T05:43:30.458Z,19.29
2019-04-30T05:44:30.690Z,19.34
2019-04-30T05:45:33.528Z,19.09
2019-04-30T05:46:31.160Z,19.08
2019-04-30T05:47:31.387Z,19.52
2019-04-30T05:48:31.622Z,19.82
2019-04-30T05:49:31.852Z,19.69
2019-04-30T05:50:32.083Z,19.24
2019-04-30T05:51:32.315Z,18.13
2019-04-30T05:52:32.545Z,18.18
2019-04-30T05:53:32.777Z,18.26
2019-04-30T05:54:33.009Z,18.44
2019-04-30T05:55:33.240Z,17.78
2019-04-30T05:56:33.472Z,17.56
2019-04-30T05:57:33.705Z,17.22
2019-04-30T05:58:33.940Z,17.26
2019-04-30T05:59:34.172Z,17.80
2019-04-30T06:00:34.409Z,17.74
2019-04-30T06:01:34.639Z,17.68
2019-04-30T06:02:34.876Z,17.97
2019-04-30T06:03:35.107Z,17.80
2019-04-30T06:04:35.338Z,17.24
2019-04-30T06:05:35.571Z,17.19
2019-04-30T06:06:35.803Z,17.34
2019-04-30T06:07:36.033Z,17.11
2019-04-30T06:08:36.266Z,17.60
2019-04-30T06:09:38.533Z,18.11
2019-04-30T06:10:36.740Z,18.10
2019-04-30T06:11:36.974Z,17.78
2019-04-30T06:12:39.158Z,17.92
2019-04-30T06:13:38.394Z,17.78
2019-04-30T06:14:48.343Z,17.85
2019-04-30T06:15:39.064Z,17.82
2019-04-30T06:16:39.321Z,18.19
2019-04-30T06:17:39.133Z,18.25
2019-04-30T06:18:38.643Z,18.19
2019-04-30T06:19:39.164Z,18.44
2019-04-30T06:20:39.060Z,18.73
2019-04-30T06:21:39.293Z,18.55
2019-04-30T06:22:39.526Z,18.90
2019-04-30T06:23:39.768Z,18.74
2019-04-30T06:24:39.991Z,18.65
2019-04-30T06:25:55.765Z,18.52
2019-04-30T06:26:40.457Z,18.77
2019-04-30T06:27:40.693Z,18.80
2019-04-30T06:28:41.632Z,18.93
2019-04-30T06:29:41.160Z,18.49
2019-04-30T06:30:41.394Z,18.62
2019-04-30T06:31:43.245Z,18.26
2019-04-30T06:32:41.848Z,17.65
2019-04-30T06:33:42.255Z,17.80
2019-04-30T06:34:42.315Z,18.16
2019-04-30T06:35:42.548Z,18.35
2019-04-30T06:36:50.987Z,18.33
2019-04-30T06:37:43.025Z,18.00
2019-04-30T06:38:43.246Z,17.57
2019-04-30T06:39:43.475Z,17.90
2019-04-30T06:40:43.709Z,17.98
2019-04-30T06:41:43.941Z,17.86
2019-04-30T06:42:44.171Z,17.78
2019-04-30T06:43:44.411Z,17.46
2019-04-30T06:44:44.640Z,17.24
2019-04-30T06:45:44.871Z,17.06
2019-04-30T06:46:45.104Z,16.78
2019-04-30T06:47:45.336Z,16.58
2019-04-30T06:48:47.338Z,16.43
2019-04-30T06:49:45.798Z,16.09
2019-04-30T06:50:46.029Z,15.97
2019-04-30T06:51:46.261Z,15.98
2019-04-30T06:52:56.342Z,16.09
2019-04-30T06:53:48.936Z,16.00
2019-04-30T06:54:46.956Z,15.72
2019-04-30T06:55:49.094Z,15.46
2019-04-30T06:56:48.517Z,15.25
2019-04-30T06:57:49.528Z,14.96
2019-04-30T06:58:49.355Z,14.86
2019-04-30T06:59:51.212Z,14.77
2019-04-30T07:00:49.623Z,14.59
2019-04-30T07:01:49.007Z,14.41
2019-04-30T07:02:49.455Z,14.43
2019-04-30T07:03:49.031Z,14.37
2019-04-30T07:04:49.405Z,14.44
2019-04-30T07:05:49.489Z,14.25
2019-04-30T07:06:50.620Z,14.14
2019-04-30T07:07:53.306Z,13.97
2019-04-30T07:08:55.637Z,14.07
2019-04-30T07:09:54.656Z,13.90
2019-04-30T07:10:55.581Z,13.86
2019-04-30T07:11:50.914Z,13.78
2019-04-30T07:12:51.094Z,13.75
2019-04-30T07:13:52.196Z,13.85
2019-04-30T07:14:51.553Z,13.75
2019-04-30T07:15:51.783Z,13.87
2019-04-30T07:16:52.011Z,13.95
2019-04-30T07:17:52.238Z,13.78
2019-04-30T07:18:52.468Z,13.97
2019-04-30T07:19:56.570Z,14.11
2019-04-30T07:20:52.925Z,14.23
2019-04-30T07:21:53.149Z,14.25
2019-04-30T07:23:00.174Z,14.14
2019-04-30T07:23:53.608Z,14.00
2019-04-30T07:24:53.837Z,14.08
2019-04-30T07:25:54.060Z,13.96
2019-04-30T07:26:54.684Z,13.92
2019-04-30T07:27:54.520Z,14.05
2019-04-30T07:28:55.385Z,14.30
2019-04-30T07:29:54.988Z,14.26
2019-04-30T07:31:10.715Z,14.28
2019-04-30T07:31:55.434Z,14.11
2019-04-30T07:32:55.661Z,14.15
2019-04-30T07:33:55.915Z,14.11
2019-04-30T07:34:56.116Z,13.89
2019-04-30T07:35:56.344Z,14.00
2019-04-30T07:37:10.759Z,14.10
2019-04-30T07:38:03.357Z,14.10
2019-04-30T07:38:59.836Z,14.11
2019-04-30T07:39:58.880Z,13.99
2019-04-30T07:40:59.140Z,13.74
2019-04-30T07:41:59.980Z,13.86
2019-04-30T07:42:59.118Z,13.72
2019-04-30T07:43:59.341Z,13.72
2019-04-30T07:45:00.687Z,13.63
2019-04-30T07:45:59.804Z,13.75
2019-04-30T07:46:59.399Z,13.77
2019-04-30T07:47:59.461Z,13.75
2019-04-30T07:48:59.921Z,13.75
2019-04-30T07:50:00.755Z,13.78
2019-04-30T07:50:59.768Z,13.77
2019-04-30T07:52:01.515Z,13.93
2019-04-30T07:53:05.612Z,14.00
2019-04-30T07:54:00.448Z,14.07
2019-04-30T07:55:00.877Z,14.04
2019-04-30T07:56:02.225Z,13.89
2019-04-30T07:57:01.157Z,13.85
2019-04-30T07:58:01.359Z,14.10
2019-04-30T07:59:02.912Z,14.18
2019-04-30T08:00:01.815Z,14.17
2019-04-30T08:01:02.045Z,14.11
2019-04-30T08:02:09.999Z,14.20
2019-04-30T08:03:02.501Z,14.26
2019-04-30T08:04:02.728Z,14.23
2019-04-30T08:05:02.961Z,14.43
2019-04-30T08:06:03.214Z,14.50
2019-04-30T08:07:03.485Z,14.25
2019-04-30T08:08:20.118Z,14.30
2019-04-30T08:09:03.973Z,14.48
2019-04-30T08:10:04.098Z,14.18
2019-04-30T08:11:04.324Z,14.28
2019-04-30T08:12:04.631Z,14.23
2019-04-30T08:13:10.211Z,14.12
2019-04-30T08:14:05.359Z,14.18
2019-04-30T08:15:05.235Z,14.20
2019-04-30T08:16:05.466Z,14.14
2019-04-30T08:17:05.691Z,14.30
2019-04-30T08:18:06.063Z,14.28
2019-04-30T08:19:06.147Z,14.36
2019-04-30T08:20:06.376Z,14.55
2019-04-30T08:21:06.628Z,14.43
2019-04-30T08:22:06.826Z,14.41
2019-04-30T08:23:15.532Z,14.40
2019-04-30T08:24:08.929Z,14.26
2019-04-30T08:25:09.612Z,14.47
2019-04-30T08:26:08.830Z,14.54
2019-04-30T08:27:09.736Z,14.62
2019-04-30T08:28:09.116Z,14.55
2019-04-30T08:29:09.566Z,14.63
2019-04-30T08:30:20.772Z,14.79
2019-04-30T08:31:09.087Z,14.69
2019-04-30T08:32:09.151Z,14.81
2019-04-30T08:33:09.578Z,14.72
2019-04-30T08:34:10.923Z,14.54
2019-04-30T08:35:10.029Z,14.48
2019-04-30T08:36:10.022Z,14.44
2019-04-30T08:37:17.266Z,14.30
2019-04-30T08:38:10.849Z,14.28
2019-04-30T08:39:10.706Z,14.28
2019-04-30T08:40:10.934Z,14.33
2019-04-30T08:41:11.162Z,14.22
2019-04-30T08:42:11.392Z,14.26
2019-04-30T08:43:11.623Z,14.26
2019-04-30T08:44:11.845Z,14.43
2019-04-30T08:45:12.074Z,14.55
2019-04-30T08:46:12.303Z,14.59
2019-04-30T08:47:12.533Z,14.47
2019-04-30T08:48:12.759Z,14.47
2019-04-30T08:49:13.218Z,14.55
2019-04-30T08:50:13.213Z,14.41
2019-04-30T08:51:14.166Z,14.37
2019-04-30T08:52:13.709Z,14.45
2019-04-30T08:53:25.987Z,14.51
2019-04-30T08:54:14.214Z,14.60
2019-04-30T08:55:17.084Z,14.50
2019-04-30T08:56:14.581Z,14.48
2019-04-30T08:57:14.835Z,14.59
2019-04-30T08:58:15.375Z,14.59
2019-04-30T08:59:15.263Z,14.59
2019-04-30T09:00:15.489Z,14.65
2019-04-30T09:01:16.570Z,14.82
2019-04-30T09:02:16.586Z,14.69
2019-04-30T09:03:16.171Z,14.69
2019-04-30T09:04:16.398Z,14.65
2019-04-30T09:05:18.441Z,14.79
2019-04-30T09:06:16.874Z,14.88
2019-04-30T09:07:17.079Z,14.89
2019-04-30T09:08:19.276Z,14.91
2019-04-30T09:09:18.788Z,14.99
2019-04-30T09:10:19.271Z,14.84
2019-04-30T09:11:24.675Z,14.81
2019-04-30T09:12:19.601Z,14.73
2019-04-30T09:13:19.205Z,14.72
2019-04-30T09:14:18.792Z,14.77
2019-04-30T09:15:18.957Z,14.91
2019-04-30T09:16:19.510Z,14.78
2019-04-30T09:17:20.029Z,14.79
2019-04-30T09:18:19.583Z,14.78
2019-04-30T09:19:21.302Z,14.58
2019-04-30T09:20:20.044Z,14.60
2019-04-30T09:21:20.269Z,14.59
2019-04-30T09:22:20.495Z,14.65
2019-04-30T09:23:20.724Z,14.63
2019-04-30T09:24:20.951Z,14.65
2019-04-30T09:25:21.182Z,14.73
2019-04-30T09:26:21.408Z,14.86
2019-04-30T09:27:21.644Z,14.72
2019-04-30T09:28:21.868Z,14.89
2019-04-30T09:29:22.095Z,14.94
2019-04-30T09:30:22.321Z,14.78
2019-04-30T09:31:22.549Z,14.81
2019-04-30T09:32:22.777Z,14.86
2019-04-30T09:33:23.006Z,14.72
2019-04-30T09:34:23.238Z,14.89
2019-04-30T09:35:23.458Z,14.99
2019-04-30T09:36:23.692Z,15.06
2019-04-30T09:37:23.920Z,15.03
2019-04-30T09:38:24.148Z,15.02
2019-04-30T09:39:24.379Z,15.03
2019-04-30T09:40:24.606Z,15.03
2019-04-30T09:41:24.830Z,14.89
2019-04-30T09:42:25.058Z,14.82
2019-04-30T09:43:25.288Z,14.85
2019-04-30T09:44:25.518Z,14.86
2019-04-30T09:45:25.744Z,14.88
2019-04-30T09:46:27.128Z,14.94
2019-04-30T09:47:26.202Z,14.99
2019-04-30T09:48:26.427Z,14.97
2019-04-30T09:49:26.661Z,15.06
2019-04-30T09:50:28.744Z,15.14
2019-04-30T09:51:27.915Z,15.28
2019-04-30T09:52:30.209Z,15.25
2019-04-30T09:53:29.312Z,15.33
2019-04-30T09:54:28.998Z,15.43
2019-04-30T09:55:29.071Z,15.43
2019-04-30T09:56:29.391Z,15.61
2019-04-30T09:57:28.990Z,15.65
2019-04-30T09:58:30.010Z,15.58
2019-04-30T09:59:29.117Z,15.68
2019-04-30T10:00:29.585Z,15.75
2019-04-30T10:01:32.170Z,15.70
2019-04-30T10:02:29.613Z,15.70
2019-04-30T10:03:31.239Z,15.70
2019-04-30T10:04:30.722Z,15.72
2019-04-30T10:05:31.474Z,15.72
2019-04-30T10:06:39.033Z,15.58
2019-04-30T10:07:30.749Z,15.59
2019-04-30T10:08:31.482Z,15.52
2019-04-30T10:09:31.207Z,15.55
2019-04-30T10:10:31.434Z,15.68
2019-04-30T10:11:31.667Z,15.70
2019-04-30T10:12:31.894Z,15.65
2019-04-30T10:13:32.129Z,15.64
2019-04-30T10:14:32.352Z,15.57
2019-04-30T10:15:32.581Z,15.58
2019-04-30T10:16:32.807Z,15.55
2019-04-30T10:17:33.037Z,15.44
2019-04-30T10:18:33.265Z,15.55
2019-04-30T10:19:33.498Z,15.47
2019-04-30T10:20:33.723Z,15.64
2019-04-30T10:21:33.950Z,15.59
2019-04-30T10:22:34.179Z,15.64
2019-04-30T10:23:34.410Z,15.67
2019-04-30T10:24:34.637Z,15.65
2019-04-30T10:25:34.865Z,15.79
2019-04-30T10:26:35.092Z,15.80
2019-04-30T10:27:35.323Z,15.88
2019-04-30T10:28:35.554Z,15.88
2019-04-30T10:29:35.779Z,16.02
2019-04-30T10:30:36.009Z,15.95
2019-04-30T10:31:36.237Z,16.00
2019-04-30T10:32:36.465Z,16.09
2019-04-30T10:33:38.477Z,16.17
2019-04-30T10:34:36.924Z,16.17
2019-04-30T10:35:38.520Z,16.24
2019-04-30T10:36:41.154Z,16.35
2019-04-30T10:37:38.756Z,16.39
2019-04-30T10:38:39.394Z,16.15
2019-04-30T10:39:38.980Z,16.24
2019-04-30T10:40:39.046Z,16.31
2019-04-30T10:41:39.527Z,16.28
2019-04-30T10:42:39.239Z,16.26
2019-04-30T10:43:39.395Z,16.12
2019-04-30T10:44:39.210Z,16.13
2019-04-30T10:45:39.438Z,15.97
2019-04-30T10:46:39.669Z,16.09
2019-04-30T10:47:39.901Z,16.28
2019-04-30T10:48:40.125Z,16.35
2019-04-30T10:49:40.355Z,16.38
2019-04-30T10:50:40.973Z,16.32
2019-04-30T10:51:40.812Z,16.36
2019-04-30T10:52:41.041Z,16.41
2019-04-30T10:53:41.278Z,16.39
2019-04-30T10:54:41.500Z,16.29
2019-04-30T10:55:41.730Z,16.35
2019-04-30T10:56:41.956Z,16.41
2019-04-30T10:57:42.186Z,16.56
2019-04-30T10:58:42.435Z,16.41
2019-04-30T10:59:42.644Z,16.47
2019-04-30T11:00:42.874Z,16.50
2019-04-30T11:01:43.125Z,16.54
2019-04-30T11:02:43.355Z,16.60
2019-04-30T11:03:43.586Z,16.57
2019-04-30T11:04:43.812Z,16.68
2019-04-30T11:05:44.041Z,16.69
2019-04-30T11:06:44.267Z,16.65
2019-04-30T11:07:44.495Z,16.56
2019-04-30T11:08:44.724Z,16.61
2019-04-30T11:09:44.971Z,16.61
2019-04-30T11:10:45.201Z,16.54
2019-04-30T11:11:45.432Z,16.51
2019-04-30T11:12:45.657Z,16.60
2019-04-30T11:13:45.888Z,16.56
2019-04-30T11:14:46.117Z,16.43
2019-04-30T11:15:46.345Z,16.50
2019-04-30T11:16:46.733Z,16.54
2019-04-30T11:17:46.925Z,16.64
2019-04-30T11:18:47.240Z,16.61
2019-04-30T11:19:49.055Z,16.58
2019-04-30T11:20:49.621Z,16.68
2019-04-30T11:21:47.875Z,16.58
2019-04-30T11:22:48.182Z,16.66
2019-04-30T11:23:49.486Z,16.66
2019-04-30T11:24:58.943Z,16.75
2019-04-30T11:25:51.145Z,16.78
2019-04-30T11:26:50.167Z,16.79
2019-04-30T11:27:50.604Z,16.79
2019-04-30T11:28:49.511Z,16.81
2019-04-30T11:29:49.794Z,16.84
2019-04-30T11:30:49.950Z,16.87
2019-04-30T11:31:50.169Z,16.81
2019-04-30T11:32:50.382Z,16.90
2019-04-30T11:33:50.733Z,16.93
2019-04-30T11:34:50.696Z,16.81
2019-04-30T11:36:02.055Z,16.87
2019-04-30T11:36:51.149Z,16.93
2019-04-30T11:37:51.377Z,17.09
2019-04-30T11:38:51.605Z,17.22
2019-04-30T11:39:51.833Z,17.20
2019-04-30T11:40:52.060Z,17.14
2019-04-30T11:41:52.288Z,17.30
2019-04-30T11:42:52.515Z,17.19
2019-04-30T11:43:52.745Z,17.16
2019-04-30T11:44:52.974Z,17.08
2019-04-30T11:45:53.205Z,17.08
2019-04-30T11:46:53.431Z,17.11
2019-04-30T11:47:53.801Z,17.15
2019-04-30T11:48:53.892Z,17.23
2019-04-30T11:49:54.127Z,17.42
2019-04-30T11:50:54.353Z,17.48
2019-04-30T11:51:54.580Z,17.56
2019-04-30T11:53:09.671Z,17.74
2019-04-30T11:53:55.037Z,17.78
2019-04-30T11:54:55.278Z,17.80
2019-04-30T11:55:55.494Z,17.71
2019-04-30T11:56:55.722Z,17.65
2019-04-30T11:57:55.951Z,17.70
2019-04-30T11:58:56.180Z,17.74
2019-04-30T11:59:56.409Z,17.71
2019-04-30T12:00:56.639Z,17.71
2019-04-30T12:01:56.870Z,17.67
2019-04-30T12:02:58.940Z,17.57
2019-04-30T12:03:59.682Z,17.60
2019-04-30T12:04:57.556Z,17.67
2019-04-30T12:05:58.932Z,17.76
2019-04-30T12:06:58.016Z,17.56
2019-04-30T12:07:59.726Z,17.52
2019-04-30T12:08:59.135Z,17.56
2019-04-30T12:09:59.573Z,17.49
2019-04-30T12:10:58.933Z,17.48
2019-04-30T12:11:59.163Z,17.51
2019-04-30T12:12:59.389Z,17.45
2019-04-30T12:13:59.618Z,17.44
2019-04-30T12:15:02.648Z,17.52
2019-04-30T12:16:00.077Z,17.56
2019-04-30T12:17:00.304Z,17.54
2019-04-30T12:18:00.534Z,17.56
2019-04-30T12:19:00.763Z,17.67
2019-04-30T12:20:00.992Z,17.64
2019-04-30T12:21:01.222Z,17.65
2019-04-30T12:22:01.454Z,17.79
2019-04-30T12:23:01.681Z,17.85
2019-04-30T12:24:01.913Z,17.85
2019-04-30T12:25:03.268Z,17.82
2019-04-30T12:26:02.993Z,17.90
2019-04-30T12:27:02.604Z,17.90
2019-04-30T12:28:02.827Z,17.83
2019-04-30T12:29:03.063Z,17.80
2019-04-30T12:30:03.291Z,17.76
2019-04-30T12:31:05.781Z,17.83
2019-04-30T12:32:03.750Z,17.82
2019-04-30T12:33:03.976Z,17.76
2019-04-30T12:34:04.205Z,17.78
2019-04-30T12:35:04.437Z,17.79
2019-04-30T12:36:06.372Z,17.86
2019-04-30T12:37:04.885Z,18.05
2019-04-30T12:38:05.113Z,18.07
2019-04-30T12:39:05.343Z,18.25
2019-04-30T12:40:05.572Z,18.34
2019-04-30T12:41:05.802Z,18.40
2019-04-30T12:42:06.031Z,18.45
2019-04-30T12:43:06.261Z,18.38
2019-04-30T12:44:06.491Z,18.28
2019-04-30T12:45:06.720Z,18.23
2019-04-30T12:46:06.951Z,18.19
2019-04-30T12:47:07.181Z,18.25
2019-04-30T12:48:07.411Z,18.26
2019-04-30T12:49:07.640Z,18.29
2019-04-30T12:50:09.574Z,18.43
2019-04-30T12:51:08.097Z,18.37
2019-04-30T12:52:08.824Z,18.16
2019-04-30T12:53:09.451Z,18.25
2019-04-30T12:54:08.792Z,18.34
2019-04-30T12:55:15.284Z,18.33
2019-04-30T12:56:09.250Z,18.44
2019-04-30T12:57:11.170Z,18.47
2019-04-30T12:58:09.927Z,18.41
2019-04-30T12:59:09.937Z,18.50
2019-04-30T13:00:10.166Z,18.41